Time;durP1;ratioP1;P1;durP2;ratioP2;P2;SDS_P1;SDS_P2;PMS_P1;PMS_P2;Temp;Humidity;BMP_temperature;BMP_pressure;BME280_temperature;BME280_humidity;BME280_pressure;Samples;Min_cycle;Max_cycle;Signal;HPM_P1;HPM_P2
2022/02/09 00:07:02;;;;;;;1.77;1.63;;;7.20;99.90;;;;;;5013648;28;20049;-88
2022/02/09 00:09:29;;;;;;;1.63;1.52;;;7.20;99.90;;;;;;5013760;28;20052;-87
2022/02/09 00:15:17;;;;;;;1.40;1.30;;;7.20;99.90;;;;;;5013586;28;20409;-87
2022/02/09 00:25:35;;;;;;;1.27;1.17;;;7.20;99.90;;;;;;5013286;28;20085;-87
2022/02/09 00:28:23;;;;;;;1.23;1.23;;;7.20;99.90;;;;;;5013564;28;20050;-87
2022/02/09 00:36:57;;;;;;;1.45;1.35;;;7.30;99.90;;;;;;5013402;28;20054;-87
2022/02/09 01:33:10;;;;;;;1.20;1.20;;;7.30;99.90;;;;;;5016728;28;20461;-87
2022/02/09 01:39:59;;;;;;;1.10;1.10;;;7.30;99.90;;;;;;5016351;28;20078;-87
2022/02/09 01:56:33;;;;;;;1.30;1.20;;;7.30;99.90;;;;;;5016084;28;20080;-88
2022/02/09 01:59:00;;;;;;;1.15;1.15;;;7.30;99.90;;;;;;5014855;28;20085;-87
2022/02/09 02:01:27;;;;;;;5.15;1.70;;;7.20;99.90;;;;;;5014969;28;20405;-87
2022/02/09 02:03:54;;;;;;;8.13;2.08;;;7.20;99.90;;;;;;5016206;28;20458;-87
2022/02/09 02:06:20;;;;;;;1.30;1.20;;;7.20;99.90;;;;;;5014791;28;20042;-86
2022/02/09 02:08:49;;;;;;;1.00;1.00;;;7.30;99.90;;;;;;4998577;28;20049;-87
2022/02/09 02:11:24;;;;;;;0.93;0.93;;;7.30;99.90;;;;;;5014602;28;20052;-87
2022/02/09 02:14:06;;;;;;;1.05;0.95;;;7.30;99.90;;;;;;5014884;28;20112;-86
2022/02/09 02:16:38;;;;;;;1.73;1.20;;;7.30;99.90;;;;;;5014602;28;20100;-87
2022/02/09 02:19:15;;;;;;;1.15;1.10;;;7.30;99.90;;;;;;5014444;28;20068;-87
2022/02/09 02:24:33;;;;;;;1.15;1.05;;;7.20;99.90;;;;;;5015186;28;20046;-87
2022/02/09 02:32:41;;;;;;;4.82;1.90;;;7.30;99.90;;;;;;5015520;28;20049;-85
2022/02/09 02:57:26;;;;;;;1.20;1.05;;;7.30;99.90;;;;;;5015537;28;20050;-85
2022/02/09 03:13:25;;;;;;;4.30;1.42;;;7.30;99.90;;;;;;5014363;28;20042;-86
2022/02/09 03:16:14;;;;;;;1.38;0.95;;;7.30;99.90;;;;;;5014663;28;20049;-86
2022/02/09 03:19:02;;;;;;;2.55;1.30;;;7.30;99.90;;;;;;5013241;28;20060;-86
2022/02/09 03:21:47;;;;;;;1.50;0.70;;;7.20;99.90;;;;;;5014276;28;20085;-87
2022/02/09 03:24:22;;;;;;;2.72;1.10;;;7.30;99.90;;;;;;5014238;28;20056;-86
2022/02/09 03:56:25;;;;;;;0.57;0.57;;;7.40;99.90;;;;;;5013661;28;20132;-87
2022/02/09 03:58:53;;;;;;;0.90;0.70;;;7.40;99.90;;;;;;5012785;28;20498;-87
2022/02/09 04:01:23;;;;;;;0.70;0.70;;;7.40;99.90;;;;;;5013710;28;20526;-88
2022/02/09 04:03:50;;;;;;;0.60;0.60;;;7.40;99.90;;;;;;5012775;28;20046;-88
2022/02/09 04:06:16;;;;;;;0.77;0.77;;;7.40;99.90;;;;;;5012362;28;20060;-86
2022/02/09 04:08:51;;;;;;;1.23;0.90;;;7.40;99.90;;;;;;5012644;28;20042;-87
2022/02/09 04:11:28;;;;;;;2.45;0.90;;;7.40;99.90;;;;;;5013588;28;20410;-87
2022/02/09 04:19:32;;;;;;;2.05;0.90;;;7.40;99.90;;;;;;5013259;28;20101;-85
2022/02/09 04:38:57;;;;;;;0.85;0.77;;;7.40;99.90;;;;;;5013631;28;20392;-86
2022/02/09 04:41:53;;;;;;;0.90;0.90;;;7.40;99.90;;;;;;5011925;28;20550;-86
2022/02/09 04:44:33;;;;;;;0.98;0.98;;;7.40;99.90;;;;;;5012858;28;20148;-87
2022/02/09 04:47:19;;;;;;;1.00;1.00;;;7.40;99.90;;;;;;5011640;28;20079;-86
2022/02/09 04:52:40;;;;;;;0.90;0.90;;;7.30;99.90;;;;;;5013211;28;20045;-86
2022/02/09 04:55:27;;;;;;;0.90;0.90;;;7.30;99.90;;;;;;5011758;28;20054;-86
2022/02/09 04:58:00;;;;;;;0.80;0.80;;;7.30;99.90;;;;;;5012950;28;20052;-86
2022/02/09 05:25:37;;;;;;;0.93;0.93;;;7.40;99.90;;;;;;5032489;28;20041;-86
2022/02/09 05:28:06;;;;;;;1.08;1.08;;;7.40;99.90;;;;;;5032116;28;20042;-87
2022/02/09 05:30:38;;;;;;;2.15;0.90;;;7.40;99.90;;;;;;5032286;28;20381;-86
2022/02/09 05:33:05;;;;;;;1.33;1.20;;;7.40;99.90;;;;;;5031071;28;20391;-87
2022/02/09 05:35:32;;;;;;;1.38;1.27;;;7.40;99.90;;;;;;5031095;28;20089;-87
2022/02/09 05:37:59;;;;;;;1.10;1.00;;;7.40;99.90;;;;;;5031917;28;20060;-86
2022/02/09 05:40:27;;;;;;;3.80;1.08;;;7.40;99.90;;;;;;5030928;28;20354;-84
2022/02/09 05:42:53;;;;;;;1.75;1.10;;;7.40;99.90;;;;;;5030992;28;20053;-86
2022/02/09 05:45:23;;;;;;;3.13;1.30;;;7.40;99.90;;;;;;5032162;28;20050;-86
2022/02/09 05:49:03;;;;;;;0.95;0.95;;;7.40;99.90;;;;;;5031478;28;20051;-86
2022/02/09 05:53:20;;;;;;;1.13;1.02;;;7.40;99.90;;;;;;5032347;28;20077;-86
2022/02/09 05:55:50;;;;;;;1.40;1.30;;;7.40;99.90;;;;;;5031953;28;20051;-87
2022/02/09 06:00:59;;;;;;;2.95;1.17;;;7.40;99.90;;;;;;5031816;28;20417;-86
2022/02/09 06:03:27;;;;;;;1.55;1.30;;;7.40;99.90;;;;;;5033151;28;20076;-86
2022/02/09 06:05:54;;;;;;;1.30;1.20;;;7.40;99.90;;;;;;5034098;28;20081;-86
2022/02/09 06:08:23;;;;;;;1.38;1.00;;;7.40;99.90;;;;;;5035213;28;20060;-86
2022/02/09 06:11:04;;;;;;;1.10;1.10;;;7.40;99.90;;;;;;5035351;28;20052;-86
2022/02/09 06:13:48;;;;;;;7.72;1.63;;;7.40;99.90;;;;;;5035482;28;20049;-86
2022/02/09 06:19:41;;;;;;;6.72;1.40;;;7.40;99.90;;;;;;5033770;28;20081;-87
2022/02/09 06:21:58;;;;;;;5.13;2.30;;;7.40;99.90;;;;;;5018088;28;20077;-86
2022/02/09 06:24:25;;;;;;;2.33;1.50;;;7.40;99.90;;;;;;5011665;28;20525;-86
2022/02/09 06:26:52;;;;;;;1.80;1.70;;;7.50;99.90;;;;;;5015341;28;20056;-87
2022/02/09 06:29:22;;;;;;;3.10;2.03;;;7.40;99.90;;;;;;5015551;28;20549;-87
2022/02/09 06:31:50;;;;;;;1.63;1.52;;;7.40;99.90;;;;;;4998222;28;20076;-86
2022/02/09 06:34:19;;;;;;;1.88;1.77;;;7.40;99.90;;;;;;4997651;28;20416;-86
2022/02/09 06:36:55;;;;;;;4.63;2.00;;;7.40;99.90;;;;;;5015350;28;20053;-87
2022/02/09 06:39:22;;;;;;;2.35;1.48;;;7.40;99.90;;;;;;5014065;28;20049;-86
2022/02/09 06:41:49;;;;;;;1.85;1.75;;;7.40;99.90;;;;;;5015253;28;20049;-87
2022/02/09 06:44:16;;;;;;;3.60;3.35;;;7.30;99.90;;;;;;5015059;28;20060;-87
2022/02/09 06:46:42;;;;;;;4.50;4.07;;;7.30;99.90;;;;;;5014127;28;20100;-86
2022/02/09 06:49:09;;;;;;;2.42;2.20;;;7.40;99.90;;;;;;5013893;28;20057;-87
2022/02/09 06:51:39;;;;;;;6.13;3.13;;;7.40;99.90;;;;;;5015194;28;20050;-87
2022/02/09 06:59:20;;;;;;;1.70;1.60;;;7.40;99.90;;;;;;5014752;28;20392;-86
2022/02/09 07:01:48;;;;;;;5.22;1.70;;;7.40;99.90;;;;;;5015243;28;20125;-87
2022/02/09 07:04:15;;;;;;;6.55;6.07;;;7.40;99.90;;;;;;5014687;28;20049;-86
2022/02/09 07:06:42;;;;;;;12.68;8.32;;;7.40;99.90;;;;;;5013766;28;20140;-87
2022/02/09 07:09:08;;;;;;;3.75;1.58;;;7.40;99.90;;;;;;5013564;28;20050;-87
2022/02/09 07:11:35;;;;;;;1.52;1.42;;;7.50;99.90;;;;;;5014702;28;20137;-85
2022/02/09 07:14:04;;;;;;;2.65;1.52;;;7.40;99.90;;;;;;5014187;28;20064;-88
2022/02/09 07:16:31;;;;;;;1.42;1.38;;;7.50;99.90;;;;;;5013627;28;20429;-87
2022/02/09 07:18:58;;;;;;;2.80;1.50;;;7.50;99.90;;;;;;5013153;28;20414;-86
2022/02/09 07:21:29;;;;;;;1.35;1.30;;;7.50;99.90;;;;;;5013534;28;20410;-85
2022/02/09 07:23:59;;;;;;;1.60;1.50;;;7.60;99.90;;;;;;5012720;28;20056;-86
2022/02/09 07:28:53;;;;;;;1.75;1.58;;;7.60;99.90;;;;;;5014373;28;20045;-86
2022/02/09 07:31:21;;;;;;;1.98;1.58;;;7.60;99.90;;;;;;5013956;28;20060;-87
2022/02/09 07:33:48;;;;;;;4.13;1.98;;;7.60;99.90;;;;;;5013080;28;20046;-86
2022/02/09 07:36:18;;;;;;;1.48;1.48;;;7.60;99.90;;;;;;5013030;28;20050;-86
2022/02/09 07:38:45;;;;;;;2.88;1.52;;;7.60;99.90;;;;;;5012648;28;20049;-86
2022/02/09 07:41:13;;;;;;;3.35;1.88;;;7.60;99.90;;;;;;5014419;28;20050;-87
2022/02/09 07:46:31;;;;;;;1.90;1.80;;;7.60;99.90;;;;;;5013998;28;20048;-86
2022/02/09 07:49:05;;;;;;;3.25;1.75;;;7.60;99.90;;;;;;5013068;28;20052;-86
2022/02/09 07:54:02;;;;;;;1.73;1.63;;;7.70;99.90;;;;;;5013649;28;20049;-86
2022/02/09 07:56:49;;;;;;;1.90;1.70;;;7.70;99.90;;;;;;5012844;28;20076;-85
2022/02/09 07:59:17;;;;;;;1.50;1.40;;;7.70;99.90;;;;;;4997896;28;20057;-86
2022/02/09 08:01:45;;;;;;;1.90;1.80;;;7.70;99.90;;;;;;5013055;28;20056;-86
2022/02/09 08:04:13;;;;;;;1.75;1.60;;;7.70;99.90;;;;;;5012559;28;20057;-86
2022/02/09 08:06:41;;;;;;;3.08;1.65;;;7.70;99.90;;;;;;5013983;28;20125;-86
2022/02/09 08:09:16;;;;;;;2.72;1.92;;;7.70;99.90;;;;;;5012681;28;20161;-87
2022/02/09 08:33:55;;;;;;;2.33;1.90;;;7.90;99.90;;;;;;5002691;28;20063;-86
2022/02/09 08:36:23;;;;;;;2.03;1.90;;;8.00;99.90;;;;;;5031832;28;20053;-86
2022/02/09 08:38:52;;;;;;;1.30;1.30;;;8.00;99.90;;;;;;5033338;28;20049;-86
2022/02/09 08:41:18;;;;;;;1.73;1.70;;;8.10;99.90;;;;;;5032376;28;20042;-86
2022/02/09 08:43:45;;;;;;;1.98;1.88;;;8.00;99.90;;;;;;5032160;28;20077;-87
2022/02/09 08:46:17;;;;;;;1.75;1.65;;;8.10;99.90;;;;;;5031803;28;20068;-86
2022/02/09 08:48:43;;;;;;;2.50;1.45;;;8.10;99.90;;;;;;5031981;28;20137;-86
2022/02/09 08:51:10;;;;;;;1.85;1.75;;;8.30;99.90;;;;;;5033105;28;20046;-87
2022/02/09 08:53:37;;;;;;;3.65;1.60;;;8.30;99.90;;;;;;5031837;28;20045;-87
2022/02/09 08:56:09;;;;;;;1.77;1.60;;;8.30;99.90;;;;;;5032909;28;20053;-87
2022/02/09 08:58:36;;;;;;;2.42;2.17;;;8.30;99.90;;;;;;5032204;28;20049;-87
2022/02/09 09:01:10;;;;;;;1.92;1.75;;;8.40;99.90;;;;;;5031797;28;20179;-85
2022/02/09 09:03:51;;;;;;;4.45;1.95;;;8.50;99.90;;;;;;5031711;28;20215;-87
2022/02/09 09:06:23;;;;;;;3.75;1.83;;;8.60;99.90;;;;;;5032011;28;20045;-86
2022/02/09 09:11:58;;;;;;;2.40;2.20;;;8.80;99.90;;;;;;5032896;28;20050;-86
2022/02/09 09:59:17;;;;;;;3.42;1.40;;;9.10;99.90;;;;;;5016425;28;20498;-86
2022/02/09 10:02:06;;;;;;;7.97;1.85;;;9.00;99.90;;;;;;5015717;28;20046;-87
2022/02/09 10:33:13;;;;;;;2.10;1.90;;;9.30;99.90;;;;;;5015867;28;20056;-86
2022/02/09 10:35:49;;;;;;;6.32;2.20;;;9.50;99.90;;;;;;5015764;28;20052;-87
2022/02/09 10:38:34;;;;;;;2.75;1.60;;;9.80;99.90;;;;;;5014542;28;20074;-86
2022/02/09 10:41:30;;;;;;;1.77;1.67;;;9.80;99.90;;;;;;4998318;28;20088;-90
2022/02/09 10:44:11;;;;;;;5.03;1.80;;;10.00;99.90;;;;;;5014509;28;20064;-86
2022/02/09 10:46:53;;;;;;;1.95;1.85;;;9.90;99.90;;;;;;5015760;28;20069;-86
2022/02/09 10:49:23;;;;;;;1.83;1.75;;;9.90;99.90;;;;;;4997445;28;20060;-86
2022/02/09 10:52:16;;;;;;;2.72;1.85;;;9.70;99.90;;;;;;5014564;28;20056;-86
2022/02/09 10:54:39;;;;;;;2.65;1.67;;;10.00;99.90;;;;;;5015471;28;20046;-87
2022/02/09 10:57:08;;;;;;;3.53;1.60;;;10.20;99.90;;;;;;5014549;28;20165;-86
2022/02/09 10:59:37;;;;;;;1.60;1.50;;;10.20;99.90;;;;;;5015300;28;20088;-86
2022/02/09 11:02:05;;;;;;;15.18;2.88;;;10.10;99.90;;;;;;5011944;28;20049;-86
2022/02/09 11:04:33;;;;;;;3.75;1.83;;;10.40;99.90;;;;;;5012900;28;20136;-86
2022/02/09 11:07:00;;;;;;;23.13;3.03;;;10.70;99.90;;;;;;5012835;28;20054;-86
2022/02/09 11:09:28;;;;;;;4.10;1.63;;;10.90;99.90;;;;;;4996827;28;20133;-86
2022/02/09 11:11:55;;;;;;;1.73;1.63;;;10.80;99.90;;;;;;5015089;28;20046;-86
2022/02/09 11:14:25;;;;;;;2.53;1.60;;;10.60;99.90;;;;;;5014822;28;20529;-86
2022/02/09 11:16:57;;;;;;;4.22;1.55;;;10.60;99.90;;;;;;5013375;28;20072;-86
2022/02/09 11:19:35;;;;;;;7.10;1.98;;;10.60;99.90;;;;;;5013750;28;20049;-87
2022/02/09 11:22:09;;;;;;;1.90;1.80;;;10.40;99.90;;;;;;5013890;28;20417;-86
2022/02/09 11:24:43;;;;;;;2.20;2.10;;;10.20;99.90;;;;;;5013306;28;20141;-86
2022/02/09 11:27:22;;;;;;;;;;;10.10;99.90;;;;;;5015084;28;20586;-86
2022/02/09 11:30:06;;;;;;;2.67;1.65;;;10.10;99.90;;;;;;5013638;28;19922;-87
2022/02/09 11:33:05;;;;;;;6.78;1.90;;;10.30;99.90;;;;;;5014408;28;20513;-87
2022/02/09 11:35:39;;;;;;;4.30;1.60;;;10.70;99.90;;;;;;5013370;28;20054;-87
2022/02/09 11:38:17;;;;;;;6.78;2.38;;;11.10;99.90;;;;;;5013091;28;20064;-87
2022/02/09 11:43:36;;;;;;;3.95;2.03;;;11.30;99.90;;;;;;5014270;28;20137;-87
2022/02/09 11:46:33;;;;;;;;;;;11.10;99.90;;;;;;5014241;28;20466;-87
2022/02/09 11:52:09;;;;;;;1.63;1.52;;;10.40;99.90;;;;;;5014426;28;20089;-87
2022/02/09 12:00:40;;;;;;;6.68;2.20;;;9.80;99.90;;;;;;5015042;28;20053;-88
2022/02/09 12:09:42;;;;;;;2.42;2.20;;;9.50;99.90;;;;;;5014337;28;20053;-88
2022/02/09 12:12:14;;;;;;;4.17;2.37;;;9.50;99.90;;;;;;5012670;28;20088;-86
2022/02/09 12:14:48;;;;;;;5.68;2.53;;;9.40;99.90;;;;;;5012348;28;20081;-86
2022/02/09 12:17:29;;;;;;;;;;;9.30;99.90;;;;;;5012044;28;20050;-87
2022/02/09 12:20:23;;;;;;;2.50;2.40;;;9.20;99.90;;;;;;5012793;28;19936;-86
2022/02/09 12:23:06;;;;;;;4.43;3.13;;;9.10;99.90;;;;;;5011196;28;20414;-87
2022/02/09 12:25:42;;;;;;;5.20;3.08;;;9.20;99.90;;;;;;5012630;28;20145;-87
2022/02/09 12:28:18;;;;;;;5.10;2.28;;;9.20;99.90;;;;;;4995746;28;20137;-86
2022/02/09 12:30:47;;;;;;;5.55;2.50;;;9.20;99.90;;;;;;5013192;28;20052;-87
2022/02/09 12:33:22;;;;;;;4.45;2.65;;;9.10;99.90;;;;;;5011747;28;20046;-87
2022/02/09 12:35:50;;;;;;;4.10;2.17;;;9.10;99.90;;;;;;5011673;28;20088;-89
2022/02/09 12:38:27;;;;;;;22.00;3.78;;;9.10;99.90;;;;;;5011611;28;20137;-87
2022/02/09 12:41:12;;;;;;;2.67;2.47;;;9.10;99.90;;;;;;4995224;28;20053;-87
2022/02/09 12:43:55;;;;;;;2.67;2.03;;;9.00;99.90;;;;;;5011550;28;20491;-86
2022/02/09 12:46:28;;;;;;;5.43;2.60;;;9.10;99.90;;;;;;5011524;28;20108;-86
2022/02/09 12:49:07;;;;;;;2.97;2.27;;;9.10;99.90;;;;;;5011472;28;20586;-86
2022/02/09 12:51:35;;;;;;;3.03;2.30;;;9.10;99.90;;;;;;5011512;28;20050;-86
2022/02/09 12:54:06;;;;;;;4.55;2.00;;;9.10;99.90;;;;;;5011642;28;20549;-86
2022/02/09 12:56:36;;;;;;;11.20;2.38;;;9.20;99.90;;;;;;5012105;28;20074;-86
2022/02/09 12:59:14;;;;;;;3.88;2.35;;;9.20;99.90;;;;;;5012359;28;20077;-87
2022/02/09 13:01:48;;;;;;;3.88;2.38;;;9.20;99.90;;;;;;5012677;28;20056;-86
2022/02/09 13:04:28;;;;;;;;;;;9.20;99.90;;;;;;4994809;28;20148;-87
2022/02/09 13:06:55;;;;;;;4.20;1.92;;;9.10;99.90;;;;;;5011437;28;19921;-86
2022/02/09 13:09:23;;;;;;;3.75;1.90;;;9.10;99.90;;;;;;5011128;28;20052;-86
2022/02/09 13:11:49;;;;;;;6.72;2.00;;;9.10;99.90;;;;;;5014111;28;20049;-86
2022/02/09 13:14:28;;;;;;;2.00;1.90;;;9.10;99.90;;;;;;5016578;28;20080;-86
2022/02/09 13:20:10;;;;;;;2.07;1.97;;;9.10;99.90;;;;;;5016157;28;20064;-86
2022/02/09 14:02:42;;;;;;;1.67;1.42;;;9.30;99.90;;;;;;5015253;28;20407;-85
2022/02/09 14:08:04;;;;;;;1.80;1.27;;;9.30;99.90;;;;;;5028894;28;20041;-86
2022/02/09 14:13:33;;;;;;;1.58;1.35;;;9.50;99.90;;;;;;5035909;28;20092;-86
2022/02/09 14:16:29;;;;;;;1.10;1.00;;;9.50;99.90;;;;;;5035735;28;20420;-86
2022/02/09 14:35:22;;;;;;;3.85;1.20;;;9.50;99.90;;;;;;5035602;28;20297;-86
2022/02/09 14:51:58;;;;;;;3.28;1.27;;;9.30;99.90;;;;;;5035349;28;20502;-86
2022/02/09 14:57:07;;;;;;;1.38;1.00;;;9.20;99.90;;;;;;5035065;28;20059;-86
2022/02/09 14:59:49;;;;;;;1.50;1.15;;;9.20;99.90;;;;;;5017910;28;20045;-86
2022/02/09 15:02:36;;;;;;;2.65;1.42;;;9.30;99.90;;;;;;5017851;28;20060;-86
2022/02/09 15:05:38;;;;;;;3.20;1.60;;;9.30;99.90;;;;;;5017207;28;20084;-86
2022/02/09 15:08:20;;;;;;;2.55;1.15;;;9.30;99.90;;;;;;5034442;28;20042;-86
2022/02/09 15:11:13;;;;;;;2.28;1.20;;;9.30;99.90;;;;;;5017593;28;20056;-87
2022/02/09 15:13:45;;;;;;;1.42;1.20;;;9.30;99.90;;;;;;5034706;28;20049;-86
2022/02/09 15:16:20;;;;;;;1.13;1.13;;;9.30;99.90;;;;;;5017204;28;20059;-86
2022/02/09 15:24:12;;;;;;;5.45;1.95;;;9.20;99.90;;;;;;5033587;28;20107;-86
2022/02/09 15:26:41;;;;;;;1.63;1.20;;;9.30;99.90;;;;;;5033882;28;20052;-85
2022/02/09 15:29:09;;;;;;;3.67;1.80;;;9.20;99.90;;;;;;5033459;28;20045;-86
2022/02/09 15:31:43;;;;;;;1.45;1.35;;;9.20;99.90;;;;;;5034572;28;20053;-86
2022/02/09 15:34:18;;;;;;;1.83;1.73;;;9.20;99.90;;;;;;5016634;28;20115;-86
2022/02/09 15:39:28;;;;;;;1.40;1.30;;;9.20;99.90;;;;;;5034282;28;20051;-86
2022/02/09 16:09:35;;;;;;;5.50;2.20;;;8.90;99.90;;;;;;5033898;28;20055;-86
2022/02/09 16:22:39;;;;;;;2.30;2.20;;;8.70;99.90;;;;;;5033567;28;20045;-86
2022/02/09 16:33:53;;;;;;;9.52;4.07;;;8.70;99.90;;;;;;5033473;28;20052;-86
2022/02/09 16:44:17;;;;;;;4.28;3.42;;;8.60;99.90;;;;;;5033544;28;20148;-86
2022/02/09 16:44:39;;;;;;;2.45;2.25;;;8.40;99.90;;;;;;5022386;28;20053;-86
2022/02/09 16:47:22;;;;;;;7.03;2.80;;;8.40;99.90;;;;;;5022939;28;20045;-86
2022/02/09 16:50:13;;;;;;;14.05;4.38;;;8.40;99.90;;;;;;5012657;28;20130;-86
2022/02/09 16:52:53;;;;;;;6.22;3.00;;;8.40;99.90;;;;;;5016317;28;20048;-87
2022/02/09 17:19:41;;;;;;;9.20;2.70;;;8.20;99.90;;;;;;5018728;28;20136;-86
2022/02/09 17:22:08;;;;;;;5.75;2.80;;;8.10;99.90;;;;;;5014808;28;20067;-86
2022/02/09 17:24:36;;;;;;;7.07;3.42;;;8.10;99.90;;;;;;5014959;28;20129;-86
2022/02/09 17:27:06;;;;;;;7.88;3.85;;;8.00;99.90;;;;;;5014709;28;20052;-86
2022/02/09 17:53:37;;;;;;;6.03;5.43;;;7.90;99.90;;;;;;5032438;28;20409;-85
2022/02/09 17:56:14;;;;;;;6.90;5.03;;;7.90;99.90;;;;;;5015144;28;20041;-86
2022/02/09 17:58:49;;;;;;;6.32;4.97;;;7.90;99.90;;;;;;5017728;28;20079;-86
2022/02/09 18:01:19;;;;;;;9.70;5.45;;;7.80;99.90;;;;;;5018512;28;20523;-86
2022/02/09 18:03:46;;;;;;;5.45;3.95;;;7.70;99.90;;;;;;5018387;28;20379;-86
2022/02/09 18:09:14;;;;;;;5.80;3.30;;;7.70;99.90;;;;;;5022893;28;20085;-86
2022/02/09 18:11:55;;;;;;;4.97;3.50;;;7.70;99.90;;;;;;5036098;28;20084;-86
2022/02/09 18:14:48;;;;;;;4.38;3.85;;;7.70;99.90;;;;;;5017917;28;20505;-86
2022/02/09 18:28:57;;;;;;;20.83;4.93;;;7.60;99.90;;;;;;5035855;28;20060;-86
2022/02/09 18:31:32;;;;;;;19.23;4.97;;;7.60;99.90;;;;;;5035294;28;20051;-87
2022/02/09 18:44:39;;;;;;;5.55;4.50;;;7.60;99.90;;;;;;5035085;28;20483;-85
2022/02/09 19:05:54;;;;;;;8.93;4.97;;;7.40;99.90;;;;;;5034955;28;20053;-86
2022/02/09 19:19:35;;;;;;;5.32;3.85;;;7.40;99.90;;;;;;5024396;28;20050;-86
2022/02/09 19:33:26;;;;;;;7.60;5.47;;;7.20;99.90;;;;;;5033686;28;20088;-86
2022/02/09 19:42:11;;;;;;;9.93;6.43;;;7.10;99.90;;;;;;5033534;28;20140;-86
2022/02/09 19:47:44;;;;;;;10.10;5.15;;;7.00;99.90;;;;;;5033080;28;20128;-86
2022/02/09 19:50:14;;;;;;;9.27;6.40;;;7.10;99.90;;;;;;5032536;28;20046;-86
2022/02/09 19:52:58;;;;;;;9.18;6.13;;;7.00;99.90;;;;;;5031974;28;20167;-86
2022/02/09 19:57:55;;;;;;;5.90;4.50;;;7.10;99.90;;;;;;5033282;28;20056;-86
2022/02/09 20:00:25;;;;;;;5.10;4.40;;;7.00;99.90;;;;;;5032065;28;20153;-86
2022/02/09 20:02:52;;;;;;;5.07;3.63;;;7.10;99.90;;;;;;5033170;28;20563;-86
2022/02/09 20:05:22;;;;;;;7.18;3.83;;;7.10;99.90;;;;;;5031783;28;20049;-86
2022/02/09 20:07:49;;;;;;;4.20;3.75;;;7.00;99.90;;;;;;5031766;28;20116;-86
2022/02/09 20:10:15;;;;;;;4.60;3.25;;;7.10;99.90;;;;;;5031838;28;20045;-86
2022/02/09 20:12:42;;;;;;;5.05;3.97;;;7.00;99.90;;;;;;5031850;28;20057;-86
2022/02/09 20:15:16;;;;;;;5.45;4.75;;;7.00;99.90;;;;;;5032763;28;20048;-86
2022/02/09 20:17:44;;;;;;;7.35;5.00;;;7.10;99.90;;;;;;5026969;28;20059;-86
2022/02/09 20:20:16;;;;;;;7.18;4.78;;;7.00;99.90;;;;;;5012691;28;20050;-86
2022/02/09 20:22:44;;;;;;;5.13;4.30;;;7.10;99.90;;;;;;5012372;28;20060;-86
2022/02/09 20:25:12;;;;;;;6.40;4.43;;;7.10;99.90;;;;;;5012163;28;20529;-86
2022/02/09 20:27:39;;;;;;;5.35;3.88;;;7.10;99.90;;;;;;5013139;28;20421;-86
2022/02/09 20:30:10;;;;;;;7.45;4.38;;;7.10;99.90;;;;;;5012049;28;20054;-86
2022/02/09 20:32:43;;;;;;;8.98;4.03;;;7.10;99.90;;;;;;5013083;28;20054;-86
2022/02/09 20:35:11;;;;;;;7.25;4.53;;;7.10;99.90;;;;;;5011785;28;20045;-87
2022/02/09 20:37:43;;;;;;;4.45;4.03;;;7.10;99.90;;;;;;5012696;28;20053;-86
2022/02/09 20:40:20;;;;;;;7.28;5.47;;;7.10;99.90;;;;;;5013060;28;20426;-86
2022/02/09 20:42:59;;;;;;;6.60;4.82;;;7.10;99.90;;;;;;5011841;28;20077;-87
2022/02/09 20:48:01;;;;;;;8.30;5.07;;;7.00;99.90;;;;;;5012648;28;20149;-86
2022/02/09 20:50:30;;;;;;;7.78;4.80;;;7.10;99.90;;;;;;5011886;28;20525;-86
2022/02/09 20:52:57;;;;;;;13.45;8.60;;;7.10;99.90;;;;;;5011954;28;20189;-86
2022/02/09 20:55:27;;;;;;;12.57;8.15;;;7.00;99.90;;;;;;5012608;28;20042;-86
2022/02/09 20:57:54;;;;;;;6.20;5.18;;;6.90;99.90;;;;;;5011620;28;20509;-86
2022/02/09 21:00:29;;;;;;;4.22;3.83;;;6.90;99.90;;;;;;5011792;28;20082;-86
2022/02/09 21:03:14;;;;;;;5.13;4.30;;;6.90;99.90;;;;;;5011855;28;20050;-87
2022/02/09 21:06:07;;;;;;;5.78;5.18;;;6.90;99.90;;;;;;5011460;28;20046;-86
2022/02/09 21:16:16;;;;;;;5.15;4.65;;;6.70;99.90;;;;;;5012367;28;20096;-87
2022/02/09 21:27:20;;;;;;;14.35;8.52;;;6.70;99.90;;;;;;5012248;28;20513;-87
2022/02/09 22:21:07;;;;;;;4.88;3.72;;;6.60;99.90;;;;;;5016097;28;20071;-86
2022/02/09 22:23:42;;;;;;;4.13;3.50;;;6.60;99.90;;;;;;5013269;28;20422;-86
2022/02/09 22:28:56;;;;;;;3.65;3.25;;;6.60;99.90;;;;;;5015787;28;20482;-87
2022/02/09 22:48:00;;;;;;;5.28;2.97;;;6.40;99.90;;;;;;5015411;28;20137;-86
2022/02/09 22:50:43;;;;;;;4.22;3.25;;;6.40;99.90;;;;;;4998077;28;20421;-86
2022/02/09 22:55:55;;;;;;;3.67;3.28;;;6.40;99.90;;;;;;5015250;28;20058;-86
2022/02/09 22:58:22;;;;;;;3.97;3.03;;;6.50;99.90;;;;;;5014353;28;20056;-86
2022/02/09 23:06:28;;;;;;;4.18;3.42;;;6.40;99.90;;;;;;5007710;28;20054;-87
2022/02/09 23:25:21;;;;;;;4.75;3.70;;;6.40;99.90;;;;;;5014933;28;20133;-86
2022/02/09 23:28:54;;;;;;;7.07;3.33;;;6.40;99.90;;;;;;5014716;28;20050;-86
2022/02/09 23:56:34;;;;;;;3.55;3.25;;;5.50;99.90;;;;;;4953741;28;20055;-86
